Time;durP1;ratioP1;P1;durP2;ratioP2;P2;SDS_P1;SDS_P2;PMS_P1;PMS_P2;Temp;Humidity;BMP_temperature;BMP_pressure;BME280_temperature;BME280_humidity;BME280_pressure;Samples;Min_cycle;Max_cycle;Signal;HPM_P1;HPM_P2
2021/08/29 00:00:06;;;;;;;5.55;2.60;;;;;;;17.88;76.23;100860.75;1798714;78;25788;-61
2021/08/29 00:02:34;;;;;;;4.65;2.70;;;;;;;17.88;76.19;100858.86;1838683;77;25879;-61
2021/08/29 00:05:03;;;;;;;10.03;3.05;;;;;;;17.83;75.96;100855.32;1843730;77;25911;-60
2021/08/29 00:07:30;;;;;;;4.75;2.85;;;;;;;17.85;76.19;100860.56;1843720;77;25761;-60
2021/08/29 00:09:57;;;;;;;5.15;2.95;;;;;;;17.93;76.41;100870.55;1843906;77;26104;-60
2021/08/29 00:12:26;;;;;;;10.08;3.40;;;;;;;18.02;76.70;100872.74;1843750;77;26074;-60
2021/08/29 00:14:53;;;;;;;6.50;3.40;;;;;;;18.05;76.67;100867.78;1844057;77;27448;-60
2021/08/29 00:17:19;;;;;;;4.92;3.02;;;;;;;18.10;76.67;100874.03;1843992;77;25777;-60
2021/08/29 00:19:47;;;;;;;8.25;3.80;;;;;;;18.16;76.76;100863.76;1843708;77;25772;-60
2021/08/29 00:22:14;;;;;;;4.05;2.75;;;;;;;18.22;76.64;100861.65;1843891;77;26078;-61
2021/08/29 00:24:41;;;;;;;6.15;3.40;;;;;;;18.21;76.43;100857.77;1843952;77;25826;-60
2021/08/29 00:27:09;;;;;;;3.65;2.90;;;;;;;18.22;76.36;100853.48;1843582;77;27922;-60
2021/08/29 00:29:37;;;;;;;4.90;3.08;;;;;;;18.18;76.13;100845.37;1806006;77;25930;-61
2021/08/29 00:32:06;;;;;;;6.80;3.30;;;;;;;18.14;75.88;100844.89;1798940;78;25729;-60
2021/08/29 00:34:33;;;;;;;7.05;3.55;;;;;;;18.08;75.78;100845.61;1798749;78;26112;-60
2021/08/29 00:37:01;;;;;;;7.75;3.33;;;;;;;18.02;75.76;100843.63;1804970;77;25811;-60
2021/08/29 00:39:29;;;;;;;5.58;3.40;;;;;;;17.96;75.93;100844.38;1841348;77;28045;-60
2021/08/29 00:41:56;;;;;;;6.42;3.05;;;;;;;18.01;76.63;100847.91;1842448;77;25762;-60
2021/08/29 00:44:23;;;;;;;4.67;3.02;;;;;;;18.05;76.61;100843.28;1843922;77;25803;-60
2021/08/29 00:46:50;;;;;;;7.87;3.17;;;;;;;18.04;76.43;100844.30;1841306;77;26065;-60
2021/08/29 00:49:20;;;;;;;6.67;3.22;;;;;;;17.93;76.54;100837.37;1837921;78;25795;-60
2021/08/29 00:52:01;;;;;;;8.00;2.95;;;;;;;17.88;76.59;100837.61;1838301;78;27730;-60
2021/08/29 00:54:30;;;;;;;7.15;3.08;;;;;;;17.77;77.03;100832.06;1836913;77;25876;-60
2021/08/29 00:56:59;;;;;;;5.85;3.30;;;;;;;17.58;77.18;100830.69;1837967;78;25812;-60
2021/08/29 00:59:29;;;;;;;8.08;3.62;;;;;;;17.45;77.75;100831.29;1837192;78;26159;-61
2021/08/29 01:02:03;;;;;;;8.00;3.52;;;;;;;17.36;78.46;100830.48;1839559;77;25757;-60
2021/08/29 01:04:35;;;;;;;8.25;3.52;;;;;;;17.29;78.54;100818.64;1792363;77;27499;-60
2021/08/29 01:07:08;;;;;;;10.65;3.42;;;;;;;17.29;79.07;100823.58;1843880;77;25802;-60
2021/08/29 01:09:44;;;;;;;7.12;3.50;;;;;;;17.28;79.14;100815.08;1842598;77;25695;-61
2021/08/29 01:12:12;;;;;;;9.53;3.30;;;;;;;17.27;79.54;100806.59;1820124;77;26047;-60
2021/08/29 01:14:46;;;;;;;6.30;3.08;;;;;;;17.30;79.42;100808.09;1842145;77;25735;-60
2021/08/29 01:17:15;;;;;;;12.68;4.40;;;;;;;17.34;79.52;100809.45;1843930;77;28065;-60
2021/08/29 01:20:12;;;;;;;3.40;2.98;;;;;;;17.29;79.64;100803.19;1843667;77;25676;-60
2021/08/29 01:22:40;;;;;;;6.90;3.05;;;;;;;17.25;80.17;100799.65;1843784;77;25750;-60
2021/08/29 01:25:14;;;;;;;9.15;3.37;;;;;;;17.21;80.16;100798.64;1843579;77;26753;-60
2021/08/29 01:27:49;;;;;;;6.75;3.87;;;;;;;17.29;80.18;100806.41;1820020;77;33020;-60
2021/08/29 01:30:16;;;;;;;7.30;3.40;;;;;;;17.34;80.02;100798.05;1843620;77;27525;-60
2021/08/29 01:32:44;;;;;;;5.17;2.95;;;;;;;17.36;80.19;100797.85;1843393;77;25994;-60
2021/08/29 01:35:13;;;;;;;6.42;3.35;;;;;;;17.32;80.21;100803.34;1843960;77;25753;-60
2021/08/29 01:37:44;;;;;;;10.75;3.02;;;;;;;17.30;80.20;100803.49;1818064;77;26079;-60
2021/08/29 01:40:14;;;;;;;7.80;3.08;;;;;;;17.28;80.33;100797.91;1844059;77;25718;-59
2021/08/29 01:42:41;;;;;;;7.58;2.83;;;;;;;17.29;80.34;100796.89;1843559;77;27517;-60
2021/08/29 01:45:10;;;;;;;8.90;3.00;;;;;;;17.24;80.42;100791.16;1820141;77;25845;-60
2021/08/29 01:47:39;;;;;;;5.08;2.75;;;;;;;17.20;80.33;100785.23;1842052;77;25801;-60
2021/08/29 01:50:08;;;;;;;6.60;3.10;;;;;;;17.16;80.50;100788.83;1841130;77;26263;-60
2021/08/29 01:52:37;;;;;;;8.65;3.02;;;;;;;17.17;80.47;100800.53;1841624;77;25832;-61
2021/08/29 01:55:10;;;;;;;7.70;3.12;;;;;;;17.20;80.21;100802.91;1810927;77;27589;-61
2021/08/29 01:57:44;;;;;;;5.42;3.02;;;;;;;17.23;80.41;100809.84;1831817;77;25890;-61
2021/08/29 02:00:13;;;;;;;5.83;3.40;;;;;;;17.24;80.51;100802.03;1830762;78;25776;-61
2021/08/29 02:02:41;;;;;;;12.15;3.58;;;;;;;17.26;80.88;100804.89;1784663;78;26112;-61
2021/08/29 02:05:11;;;;;;;9.25;3.60;;;;;;;17.24;81.23;100802.86;1805199;79;25694;-61
2021/08/29 02:07:49;;;;;;;5.85;3.62;;;;;;;17.23;81.04;100802.53;1805279;79;27471;-60
2021/08/29 02:10:23;;;;;;;8.68;3.77;;;;;;;17.27;81.21;100799.80;1803306;78;25782;-60
2021/08/29 02:12:59;;;;;;;7.97;4.00;;;;;;;17.27;80.99;100789.41;1782912;79;25884;-61
2021/08/29 02:15:33;;;;;;;5.92;3.25;;;;;;;17.28;81.05;100791.98;1805619;79;25997;-62
2021/08/29 02:18:03;;;;;;;5.47;3.27;;;;;;;17.31;81.09;100784.80;1805496;79;25717;-61
2021/08/29 02:20:30;;;;;;;7.05;3.08;;;;;;;17.40;81.15;100784.24;1783335;79;28150;-61
2021/08/29 02:22:59;;;;;;;11.95;3.30;;;;;;;17.48;81.17;100781.46;1805215;79;26408;-61
2021/08/29 02:25:26;;;;;;;4.17;2.80;;;;;;;17.57;81.20;100788.20;1805363;79;25754;-61
2021/08/29 02:27:54;;;;;;;8.05;2.92;;;;;;;17.61;80.82;100773.22;1808385;78;26081;-61
2021/08/29 02:30:21;;;;;;;10.20;3.20;;;;;;;17.65;80.78;100765.00;1809580;78;25762;-60
2021/08/29 02:32:52;;;;;;;11.20;2.90;;;;;;;17.66;80.74;100759.37;1832512;78;28681;-60
2021/08/29 02:35:21;;;;;;;9.03;2.98;;;;;;;17.67;80.44;100754.27;1750723;77;25733;-60
2021/08/29 02:37:51;;;;;;;7.65;3.10;;;;;;;17.72;80.35;100756.44;1832613;78;25751;-61
2021/08/29 02:40:20;;;;;;;3.40;2.92;;;;;;;17.78;80.40;100746.20;1833144;78;26068;-62
2021/08/29 02:42:50;;;;;;;3.83;2.83;;;;;;;17.83;80.36;100753.28;1832997;78;25741;-61
2021/08/29 02:45:18;;;;;;;12.03;3.05;;;;;;;17.89;80.03;100754.92;1833130;77;27421;-61
2021/08/29 02:47:47;;;;;;;4.87;2.75;;;;;;;17.93;79.99;100753.53;1800101;78;25933;-61
2021/08/29 02:50:15;;;;;;;10.00;3.05;;;;;;;17.95;79.25;100745.50;1800832;78;25822;-61
2021/08/29 02:52:44;;;;;;;6.30;2.65;;;;;;;17.83;78.49;100736.12;1833031;78;26116;-62
2021/08/29 02:55:15;;;;;;;5.25;2.70;;;;;;;17.68;78.28;100729.28;1832932;78;25740;-61
2021/08/29 02:57:46;;;;;;;8.13;3.37;;;;;;;17.55;78.58;100724.97;1832892;77;27487;-61
2021/08/29 03:00:33;;;;;;;7.03;3.02;;;;;;;17.45;78.67;100712.99;1829735;78;25929;-60
2021/08/29 03:03:03;;;;;;;7.28;2.85;;;;;;;17.35;79.21;100712.73;1831238;76;25836;-60
2021/08/29 03:05:32;;;;;;;7.03;3.37;;;;;;;17.34;79.49;100708.84;1833237;76;25762;-61
2021/08/29 03:08:00;;;;;;;7.80;3.10;;;;;;;17.29;79.36;100711.25;1837407;78;25790;-60
2021/08/29 03:10:28;;;;;;;8.35;2.80;;;;;;;17.30;79.60;100714.30;1838164;78;27434;-60
2021/08/29 03:12:56;;;;;;;5.67;3.22;;;;;;;17.26;79.68;100708.39;1814328;78;25773;-61
2021/08/29 03:15:25;;;;;;;4.35;2.98;;;;;;;17.19;80.09;100700.63;1820231;77;26613;-61
2021/08/29 03:17:54;;;;;;;5.30;2.85;;;;;;;17.25;80.50;100695.81;1815119;78;26052;-61
2021/08/29 03:20:27;;;;;;;8.45;3.10;;;;;;;17.27;80.32;100692.91;1838310;77;25943;-62
2021/08/29 03:22:55;;;;;;;4.90;3.25;;;;;;;17.30;80.24;100688.47;1838593;77;27320;-61
2021/08/29 03:25:22;;;;;;;7.10;3.05;;;;;;;17.26;80.17;100694.80;1838037;77;25680;-61
2021/08/29 03:27:52;;;;;;;8.28;3.47;;;;;;;17.21;80.25;100685.82;1837865;78;25726;-60
2021/08/29 03:30:19;;;;;;;10.08;4.00;;;;;;;17.15;80.60;100692.00;1838296;77;26073;-59
2021/08/29 03:32:47;;;;;;;11.53;3.62;;;;;;;17.10;80.55;100691.67;1838294;78;25838;-60
2021/08/29 03:35:18;;;;;;;9.68;3.10;;;;;;;17.10;80.65;100690.31;1837141;77;28157;-60
2021/08/29 03:37:48;;;;;;;8.28;4.05;;;;;;;17.14;81.07;100695.73;1837384;77;25782;-60
2021/08/29 03:40:17;;;;;;;5.65;3.20;;;;;;;17.10;80.92;100695.75;1838081;78;25723;-60
2021/08/29 03:42:46;;;;;;;6.65;4.00;;;;;;;17.10;81.09;100702.55;1788450;78;26125;-60
2021/08/29 03:45:18;;;;;;;8.33;3.70;;;;;;;17.11;81.28;100709.68;1838203;78;25726;-60
2021/08/29 03:47:46;;;;;;;9.28;3.00;;;;;;;17.11;81.29;100709.68;1803160;78;27437;-60
2021/08/29 03:50:14;;;;;;;10.68;3.58;;;;;;;17.12;81.33;100720.05;1798510;78;25791;-59
2021/08/29 03:52:43;;;;;;;10.00;3.92;;;;;;;17.08;81.03;100741.28;1798854;78;25802;-60
2021/08/29 03:55:22;;;;;;;12.30;4.80;;;;;;;17.11;81.21;100745.54;1798988;79;26124;-60
2021/08/29 03:57:54;;;;;;;9.03;3.83;;;;;;;17.13;81.47;100761.99;1798741;78;25843;-60
2021/08/29 04:00:24;;;;;;;11.05;4.22;;;;;;;17.11;82.17;100765.92;1807327;77;27508;-59
2021/08/29 04:02:54;;;;;;;11.15;4.17;;;;;;;17.02;82.56;100763.26;1812027;78;25706;-60
2021/08/29 04:05:37;;;;;;;17.98;4.58;;;;;;;16.93;83.72;100771.58;1809605;78;25774;-60
2021/08/29 04:08:08;;;;;;;13.00;4.22;;;;;;;16.83;86.25;100778.08;1811987;79;27006;-59
2021/08/29 04:10:40;;;;;;;7.50;4.53;;;;;;;16.61;87.18;100762.06;1811774;79;25698;-59
2021/08/29 04:13:10;;;;;;;9.28;4.50;;;;;;;16.49;88.45;100752.09;1812177;79;27346;-60
2021/08/29 04:15:56;;;;;;;10.82;3.95;;;;;;;16.46;89.12;100752.44;1811673;78;25699;-60
2021/08/29 04:18:25;;;;;;;6.37;3.80;;;;;;;16.40;89.70;100747.23;1812010;79;25778;-60
2021/08/29 04:20:53;;;;;;;6.28;3.87;;;;;;;16.22;90.09;100739.82;1789190;79;26751;-60
2021/08/29 04:23:21;;;;;;;5.90;3.87;;;;;;;16.09;90.04;100738.48;1812042;79;25699;-59
2021/08/29 04:25:49;;;;;;;8.20;4.03;;;;;;;16.01;90.81;100729.50;1811393;79;28193;-59
2021/08/29 04:28:18;;;;;;;13.48;4.25;;;;;;;15.98;90.97;100711.70;1808158;78;26332;-60
2021/08/29 04:30:46;;;;;;;6.30;4.03;;;;;;;16.03;90.70;100703.91;1799941;78;25509;-59
2021/08/29 04:33:13;;;;;;;7.75;4.40;;;;;;;16.12;90.73;100688.44;1800238;78;26820;-59
2021/08/29 04:35:44;;;;;;;8.40;3.40;;;;;;;16.17;90.93;100690.63;1797585;79;25886;-59
2021/08/29 04:38:12;;;;;;;7.50;3.52;;;;;;;16.13;90.50;100682.52;1800184;78;27399;-60
2021/08/29 04:40:40;;;;;;;9.38;4.00;;;;;;;16.15;91.12;100692.66;1777932;79;25895;-59
2021/08/29 04:43:07;;;;;;;7.28;3.50;;;;;;;16.14;90.36;100693.19;1800043;78;25690;-60
2021/08/29 04:45:34;;;;;;;8.43;3.90;;;;;;;16.15;90.53;100689.95;1807731;79;26102;-61
2021/08/29 04:48:04;;;;;;;7.72;4.03;;;;;;;16.16;90.55;100688.44;1817926;77;25825;-59
2021/08/29 04:50:31;;;;;;;6.62;4.08;;;;;;;16.16;90.48;100695.22;1810569;79;27921;-59
2021/08/29 04:52:58;;;;;;;6.80;3.45;;;;;;;16.18;90.44;100685.54;1810249;78;25783;-59
2021/08/29 04:55:25;;;;;;;7.00;3.65;;;;;;;16.27;91.07;100688.55;1810529;78;25790;-60
2021/08/29 04:57:53;;;;;;;5.70;3.65;;;;;;;16.39;91.58;100689.88;1810500;79;27117;-59
2021/08/29 05:00:21;;;;;;;5.92;3.20;;;;;;;16.45;91.38;100701.03;1810336;79;25707;-60
2021/08/29 05:02:49;;;;;;;7.72;3.40;;;;;;;16.48;90.86;100692.55;1779146;79;27552;-59
2021/08/29 05:05:17;;;;;;;13.43;3.47;;;;;;;16.45;90.38;100686.94;1801511;79;25778;-59
2021/08/29 05:07:44;;;;;;;6.22;3.87;;;;;;;16.50;90.26;100680.98;1801303;79;25811;-60
2021/08/29 05:10:12;;;;;;;5.85;4.08;;;;;;;16.58;90.31;100685.86;1801903;79;26831;-59
2021/08/29 05:12:40;;;;;;;7.67;3.70;;;;;;;16.67;90.34;100678.53;1798946;79;25822;-60
2021/08/29 05:15:09;;;;;;;6.53;3.37;;;;;;;16.77;90.35;100678.78;1801576;79;27477;-59
2021/08/29 05:17:37;;;;;;;5.72;3.83;;;;;;;16.84;90.37;100675.19;1822981;77;25854;-60
2021/08/29 05:20:06;;;;;;;5.87;3.55;;;;;;;16.91;90.27;100668.53;1836794;76;26425;-59
2021/08/29 05:22:51;;;;;;;5.28;3.17;;;;;;;16.97;90.02;100665.64;1841985;77;26110;-59
2021/08/29 05:25:32;;;;;;;8.00;3.60;;;;;;;17.02;90.25;100656.41;1794822;78;25848;-59
2021/08/29 05:27:59;;;;;;;5.35;3.50;;;;;;;16.94;89.08;100664.63;1840370;76;27465;-60
2021/08/29 05:30:27;;;;;;;7.00;3.47;;;;;;;16.93;88.97;100658.82;1843502;77;25721;-59
2021/08/29 05:32:54;;;;;;;10.05;3.87;;;;;;;16.87;88.78;100647.67;1843555;77;25823;-60
2021/08/29 05:35:21;;;;;;;4.50;3.10;;;;;;;16.78;88.86;100628.38;1843542;77;26215;-60
2021/08/29 05:37:48;;;;;;;4.67;3.70;;;;;;;16.72;88.75;100629.94;1843791;77;25778;-59
2021/08/29 05:40:35;;;;;;;5.80;3.50;;;;;;;16.71;89.03;100621.45;1818879;77;27323;-60
2021/08/29 05:43:20;;;;;;;5.87;3.42;;;;;;;16.74;89.28;100616.16;1843416;77;25880;-60
2021/08/29 05:45:48;;;;;;;6.17;3.30;;;;;;;16.74;88.75;100602.58;1822700;77;25840;-60
2021/08/29 05:48:16;;;;;;;5.80;3.62;;;;;;;16.84;89.00;100598.28;1832903;77;27023;-60
2021/08/29 05:50:44;;;;;;;6.47;4.40;;;;;;;16.96;89.22;100594.13;1834153;77;25741;-60
2021/08/29 05:53:11;;;;;;;5.05;3.90;;;;;;;17.17;89.16;100602.94;1830468;77;27462;-60
2021/08/29 05:55:39;;;;;;;5.92;3.70;;;;;;;17.34;89.06;100600.09;1842910;77;25688;-60
2021/08/29 05:58:06;;;;;;;4.58;3.50;;;;;;;17.53;89.18;100594.62;1843793;77;25737;-61
2021/08/29 06:00:34;;;;;;;8.00;3.98;;;;;;;17.70;88.64;100593.93;1839247;77;26491;-60
2021/08/29 06:03:05;;;;;;;5.90;3.62;;;;;;;17.88;88.45;100588.09;1833716;77;25763;-62
2021/08/29 06:05:37;;;;;;;5.75;3.27;;;;;;;18.06;87.81;100586.88;1830570;76;25913;-62
2021/08/29 06:08:14;;;;;;;5.12;3.33;;;;;;;18.19;87.29;100582.11;1833617;77;26421;-61
2021/08/29 06:10:41;;;;;;;6.92;3.30;;;;;;;18.28;84.96;100569.58;1837145;77;25805;-61
2021/08/29 06:13:08;;;;;;;8.60;3.33;;;;;;;18.40;85.78;100575.36;1824847;77;26200;-61
2021/08/29 06:15:36;;;;;;;5.15;2.67;;;;;;;18.50;85.06;100576.39;1842757;77;26174;-61
2021/08/29 06:18:04;;;;;;;4.83;3.12;;;;;;;18.57;84.39;100575.10;1842818;77;27471;-62
2021/08/29 06:20:31;;;;;;;5.08;2.58;;;;;;;18.61;81.90;100562.77;1843611;77;26389;-60
2021/08/29 06:22:59;;;;;;;6.20;3.00;;;;;;;18.66;82.58;100558.95;1841618;77;25739;-61
2021/08/29 06:25:44;;;;;;;4.65;3.27;;;;;;;18.63;81.50;100565.31;1830813;77;26826;-61
2021/08/29 06:28:29;;;;;;;5.83;3.37;;;;;;;18.64;82.27;100562.92;1828140;77;25782;-61
2021/08/29 06:31:00;;;;;;;6.83;3.37;;;;;;;18.64;80.79;100561.56;1837265;77;28188;-59
2021/08/29 06:34:00;;;;;;;3.80;2.92;;;;;;;18.62;81.07;100563.09;1816121;77;25766;-61
2021/08/29 06:36:44;;;;;;;4.03;2.83;;;;;;;18.58;80.83;100567.27;1818901;78;25786;-61
2021/08/29 06:39:14;;;;;;;9.18;3.50;;;;;;;18.61;80.65;100567.71;1801807;77;26927;-60
2021/08/29 06:41:41;;;;;;;4.65;2.65;;;;;;;18.65;80.89;100566.80;1819605;77;25836;-60
2021/08/29 06:44:09;;;;;;;4.35;3.05;;;;;;;18.74;81.07;100557.45;1843644;77;28440;-60
2021/08/29 06:46:38;;;;;;;5.92;2.77;;;;;;;18.83;80.77;100547.78;1826583;77;26175;-60
2021/08/29 06:49:23;;;;;;;5.72;2.87;;;;;;;18.97;81.28;100555.05;1807483;77;25926;-60
2021/08/29 06:51:52;;;;;;;8.45;3.65;;;;;;;19.08;79.22;100565.42;1800270;78;26789;-60
2021/08/29 06:54:21;;;;;;;6.92;3.40;;;;;;;19.11;77.01;100564.18;1795664;78;25778;-60
2021/08/29 06:57:08;;;;;;;4.65;2.87;;;;;;;19.12;77.42;100563.67;1795705;78;28196;-60
2021/08/29 06:59:35;;;;;;;6.20;3.33;;;;;;;19.29;77.04;100564.20;1799006;79;25908;-59
2021/08/29 07:02:03;;;;;;;7.80;4.30;;;;;;;19.39;75.77;100557.38;1828521;77;25770;-60
2021/08/29 07:04:31;;;;;;;4.83;3.00;;;;;;;19.37;76.52;100556.72;1820389;77;26149;-60
2021/08/29 07:07:00;;;;;;;6.53;4.17;;;;;;;19.43;76.33;100552.86;1844157;77;25872;-59
2021/08/29 07:09:45;;;;;;;7.65;3.35;;;;;;;19.56;76.83;100552.95;1819710;77;27441;-59
2021/08/29 07:12:13;;;;;;;7.15;3.15;;;;;;;19.66;76.13;100555.31;1801667;79;26474;-60
2021/08/29 07:14:45;;;;;;;;;;;;;;;19.75;76.12;100555.46;1803987;79;25785;-59
2021/08/29 07:17:14;;;;;;;4.60;2.98;;;;;;;19.85;75.86;100552.41;1802109;77;26108;-61
2021/08/29 07:19:42;;;;;;;6.17;3.60;;;;;;;19.93;71.76;100548.14;1830591;77;25798;-60
2021/08/29 07:22:10;;;;;;;4.00;3.17;;;;;;;20.07;73.88;100550.91;1822147;77;27553;-60
2021/08/29 07:24:56;;;;;;;9.43;3.72;;;;;;;20.30;73.19;100543.23;1810506;79;25718;-60
2021/08/29 07:27:41;;;;;;;7.55;4.03;;;;;;;20.47;73.46;100548.30;1811914;77;25885;-61
2021/08/29 07:30:26;;;;;;;6.67;3.83;;;;;;;20.53;71.51;100543.36;1843705;77;26105;-60
2021/08/29 07:32:55;;;;;;;8.63;3.98;;;;;;;20.53;71.86;100543.90;1840896;77;25757;-61
2021/08/29 07:35:22;;;;;;;5.15;3.50;;;;;;;20.53;69.08;100549.37;1843167;77;28190;-60
2021/08/29 07:37:57;;;;;;;6.25;3.35;;;;;;;20.48;70.76;100549.45;1802619;77;26221;-60
2021/08/29 07:40:24;;;;;;;6.75;3.80;;;;;;;20.51;71.05;100544.63;1801351;79;25792;-60
2021/08/29 07:42:52;;;;;;;7.05;3.47;;;;;;;20.53;70.93;100548.00;1801761;78;26118;-61
2021/08/29 07:45:19;;;;;;;4.83;3.37;;;;;;;20.59;71.04;100549.34;1800785;79;25737;-60
2021/08/29 07:47:52;;;;;;;6.62;3.90;;;;;;;20.60;70.63;100543.38;1799426;78;28394;-60
2021/08/29 07:50:15;;;;;;;7.08;3.83;;;;;;;20.61;70.57;100537.70;1797979;78;25741;-59
2021/08/29 07:52:42;;;;;;;5.67;3.35;;;;;;;20.62;70.15;100541.25;1794003;78;25636;-59
2021/08/29 07:55:27;;;;;;;6.12;3.60;;;;;;;20.72;69.61;100543.59;1793918;78;26668;-60
2021/08/29 07:57:56;;;;;;;5.85;3.50;;;;;;;20.83;69.75;100537.55;1790760;79;26042;-60
2021/08/29 08:00:25;;;;;;;5.53;3.52;;;;;;;20.88;69.36;100532.27;1793355;77;27551;-60
2021/08/29 08:03:03;;;;;;;4.37;3.35;;;;;;;20.89;69.83;100529.86;1777631;80;25927;-60
2021/08/29 08:05:50;;;;;;;7.00;3.20;;;;;;;20.93;70.13;100533.01;1748283;79;25744;-59
2021/08/29 08:08:35;;;;;;;7.08;3.27;;;;;;;20.94;69.80;100530.05;1794490;79;26081;-60
2021/08/29 08:11:07;;;;;;;8.75;4.47;;;;;;;21.01;68.38;100527.86;1778246;79;25835;-60
2021/08/29 08:13:34;;;;;;;8.38;3.08;;;;;;;20.84;68.12;100526.06;1794517;79;28207;-60
2021/08/29 08:16:02;;;;;;;5.55;3.40;;;;;;;20.79;68.08;100522.59;1793967;79;26431;-60
2021/08/29 08:18:29;;;;;;;4.70;3.17;;;;;;;20.69;68.63;100514.80;1794356;79;26583;-60
2021/08/29 08:20:57;;;;;;;12.43;3.60;;;;;;;20.69;69.33;100516.16;1794230;79;26016;-61
2021/08/29 08:23:32;;;;;;;5.05;3.40;;;;;;;20.78;69.69;100516.30;1791101;78;25719;-60
2021/08/29 08:26:07;;;;;;;5.15;3.20;;;;;;;20.84;69.31;100507.79;1807503;78;27572;-59
2021/08/29 08:28:45;;;;;;;7.03;3.50;;;;;;;20.83;68.56;100512.94;1692145;84;25791;-60
2021/08/29 08:31:30;;;;;;;9.35;3.33;;;;;;;20.88;69.09;100509.58;1826840;78;25735;-59
2021/08/29 08:33:58;;;;;;;8.30;3.72;;;;;;;20.96;68.65;100505.25;1759408;78;26168;-59
2021/08/29 08:36:39;;;;;;;3.75;3.30;;;;;;;21.06;68.59;100498.83;1816642;77;25767;-60
2021/08/29 08:39:08;;;;;;;7.70;3.35;;;;;;;21.20;67.45;100495.52;1821436;77;27473;-60
2021/08/29 08:41:46;;;;;;;6.25;3.67;;;;;;;21.23;67.77;100495.64;1806384;77;26367;-60
2021/08/29 08:44:31;;;;;;;5.22;3.27;;;;;;;21.21;67.19;100493.10;1814016;78;25782;-59
2021/08/29 08:47:19;;;;;;;9.53;3.80;;;;;;;21.16;67.69;100488.81;1813559;78;26087;-59
2021/08/29 08:50:05;;;;;;;6.55;3.58;;;;;;;21.16;68.26;100491.55;1806288;78;25809;-59
2021/08/29 08:52:56;;;;;;;6.78;3.70;;;;;;;21.18;68.08;100496.80;1816044;78;27474;-61
2021/08/29 08:55:41;;;;;;;6.12;3.45;;;;;;;21.15;68.14;100506.81;1814990;78;25795;-60
2021/08/29 08:58:28;;;;;;;7.42;3.77;;;;;;;21.08;68.24;100503.54;1799544;78;25817;-60
2021/08/29 09:01:04;;;;;;;7.37;3.70;;;;;;;21.05;68.47;100509.96;1814092;77;26749;-60
2021/08/29 09:03:42;;;;;;;6.50;3.83;;;;;;;20.97;68.27;100518.39;1800026;78;25838;-60
2021/08/29 09:06:14;;;;;;;8.78;4.05;;;;;;;20.91;68.43;100514.09;1802449;78;27443;-60
2021/08/29 09:08:42;;;;;;;11.55;4.47;;;;;;;21.00;67.66;100525.64;1803276;79;26115;-61
2021/08/29 09:11:09;;;;;;;8.58;4.78;;;;;;;20.98;67.52;100533.74;1816552;78;25773;-60
2021/08/29 09:13:50;;;;;;;12.35;4.78;;;;;;;20.86;67.72;100541.74;1824527;78;26091;-61
2021/08/29 09:16:25;;;;;;;10.72;5.00;;;;;;;20.69;67.47;100533.93;1824412;78;25819;-62
2021/08/29 09:19:03;;;;;;;9.45;4.62;;;;;;;20.59;67.26;100525.30;1824373;78;27549;-59
2021/08/29 09:21:34;;;;;;;6.60;4.28;;;;;;;20.38;67.91;100528.52;1789327;77;27246;-60
2021/08/29 09:24:11;;;;;;;8.53;5.22;;;;;;;20.13;68.40;100511.84;1766259;81;25799;-60
2021/08/29 09:26:59;;;;;;;7.90;5.08;;;;;;;19.92;69.40;100531.94;1765547;80;25939;-59
2021/08/29 09:29:44;;;;;;;7.83;5.03;;;;;;;19.73;70.26;100532.16;1778091;80;25764;-60
2021/08/29 09:32:12;;;;;;;6.78;4.67;;;;;;;19.62;70.73;100515.31;1823513;77;27570;-60
2021/08/29 09:34:57;;;;;;;11.60;4.72;;;;;;;19.57;71.11;100516.45;1836832;78;26421;-60
2021/08/29 09:37:26;;;;;;;8.60;5.08;;;;;;;19.59;71.70;100514.34;1837883;78;25818;-59
2021/08/29 09:40:24;;;;;;;13.50;4.78;;;;;;;19.54;72.52;100520.40;1823443;78;25789;-59
2021/08/29 09:42:57;;;;;;;8.00;4.67;;;;;;;19.50;72.68;100520.50;1815147;77;25976;-60
2021/08/29 09:45:32;;;;;;;9.85;4.87;;;;;;;19.56;72.83;100525.67;1823902;78;27539;-61
2021/08/29 09:48:18;;;;;;;7.30;4.97;;;;;;;19.70;72.94;100532.88;1791823;80;25818;-59
2021/08/29 09:50:54;;;;;;;8.18;4.42;;;;;;;19.79;72.76;100539.52;1817092;78;25819;-60
2021/08/29 09:53:24;;;;;;;10.53;5.08;;;;;;;19.79;72.51;100539.52;1831543;77;26790;-60
2021/08/29 09:56:23;;;;;;;7.55;5.03;;;;;;;19.81;72.39;100534.71;1838174;77;25672;-60
2021/08/29 09:59:08;;;;;;;8.88;5.62;;;;;;;19.92;72.67;100523.25;1840670;77;27342;-59
2021/08/29 10:01:56;;;;;;;9.58;4.87;;;;;;;20.17;72.75;100523.52;1831239;77;25723;-60
2021/08/29 10:04:31;;;;;;;7.28;4.72;;;;;;;20.38;72.30;100526.31;1832059;78;26516;-59
2021/08/29 10:07:17;;;;;;;11.22;4.75;;;;;;;20.54;71.93;100523.19;1832881;78;26070;-60
2021/08/29 10:09:47;;;;;;;7.37;4.62;;;;;;;20.78;71.71;100512.71;1832618;77;25770;-60
2021/08/29 10:12:22;;;;;;;17.57;4.90;;;;;;;21.06;70.96;100511.14;1838965;77;27501;-60
2021/08/29 10:14:51;;;;;;;7.85;5.28;;;;;;;21.23;70.33;100510.15;1840514;77;25806;-60
2021/08/29 10:17:23;;;;;;;9.38;6.28;;;;;;;21.34;69.81;100516.02;1761845;77;26647;-61
2021/08/29 10:20:14;;;;;;;7.83;5.33;;;;;;;21.29;68.07;100513.10;1840748;77;25735;-60
2021/08/29 10:22:49;;;;;;;6.65;4.45;;;;;;;21.15;67.62;100501.34;1837587;77;25724;-60
2021/08/29 10:25:20;;;;;;;9.53;4.70;;;;;;;21.01;67.62;100504.63;1840760;77;27443;-60
2021/08/29 10:27:58;;;;;;;12.35;5.10;;;;;;;20.92;67.89;100521.25;1840011;77;25759;-59
2021/08/29 10:30:35;;;;;;;11.50;4.80;;;;;;;20.96;68.53;100517.56;1812966;77;25923;-60
2021/08/29 10:33:19;;;;;;;6.17;4.50;;;;;;;21.08;68.57;100521.86;1728209;80;26793;-60
2021/08/29 10:35:50;;;;;;;8.08;5.85;;;;;;;21.08;67.53;100518.58;1787500;79;26304;-59
2021/08/29 10:38:38;;;;;;;6.58;4.65;;;;;;;21.09;67.81;100506.59;1787658;79;27526;-61
2021/08/29 10:41:23;;;;;;;10.05;4.87;;;;;;;21.14;67.89;100491.45;1787727;79;25742;-61
2021/08/29 10:43:53;;;;;;;7.25;4.92;;;;;;;21.24;67.39;100506.91;1798555;77;25762;-60
2021/08/29 10:46:44;;;;;;;8.58;5.03;;;;;;;21.33;67.34;100511.09;1670689;84;27607;-61
2021/08/29 10:49:31;;;;;;;7.95;4.65;;;;;;;21.35;67.53;100504.85;1651189;85;25839;-60
2021/08/29 10:51:58;;;;;;;6.72;4.00;;;;;;;21.40;67.37;100497.38;1698091;81;28414;-60
2021/08/29 10:54:25;;;;;;;8.78;4.22;;;;;;;21.38;67.10;100494.86;1763906;80;25911;-59
2021/08/29 10:56:52;;;;;;;5.50;4.03;;;;;;;21.31;66.99;100483.61;1772717;80;25727;-61
2021/08/29 10:59:26;;;;;;;5.50;4.35;;;;;;;21.40;67.38;100500.11;1772901;80;26096;-61
2021/08/29 11:02:11;;;;;;;10.88;5.00;;;;;;;21.66;67.52;100503.84;1776845;80;25801;-61
2021/08/29 11:04:57;;;;;;;10.75;4.17;;;;;;;22.40;67.56;100498.03;1763535;80;28322;-60
2021/08/29 11:07:48;;;;;;;10.10;4.55;;;;;;;23.74;65.59;100498.13;1740116;82;25721;-61
2021/08/29 11:10:41;;;;;;;8.90;4.55;;;;;;;25.18;64.52;100491.95;1740295;82;26438;-61
2021/08/29 11:13:32;;;;;;;4.20;3.70;;;;;;;26.42;58.82;100491.16;1723986;82;26101;-61
2021/08/29 11:16:13;;;;;;;6.78;4.10;;;;;;;26.58;55.00;100499.16;1763797;79;25767;-62
2021/08/29 11:19:05;;;;;;;6.60;4.40;;;;;;;27.48;53.55;100500.55;1809021;79;27428;-61
2021/08/29 11:21:41;;;;;;;5.78;4.10;;;;;;;27.94;53.57;100494.77;1802332;79;25922;-60
2021/08/29 11:24:48;;;;;;;6.90;3.95;;;;;;;27.98;49.94;100485.94;1804064;78;25738;-61
2021/08/29 11:27:48;;;;;;;3.87;3.47;;;;;;;27.96;49.53;100487.06;1811197;77;26447;-60
2021/08/29 11:30:41;;;;;;;7.03;3.75;;;;;;;28.26;50.22;100493.20;1810589;79;25879;-60
2021/08/29 11:33:27;;;;;;;7.47;3.85;;;;;;;28.41;48.59;100494.72;1838689;77;26929;-60
2021/08/29 11:36:02;;;;;;;4.62;3.67;;;;;;;28.36;49.17;100499.36;1812066;77;25752;-60
2021/08/29 11:38:43;;;;;;;5.12;3.75;;;;;;;27.85;46.77;100494.09;1743786;79;25923;-61
2021/08/29 11:41:17;;;;;;;7.53;3.75;;;;;;;27.25;48.76;100494.72;1804107;79;26054;-60
2021/08/29 11:43:48;;;;;;;7.92;3.90;;;;;;;26.94;49.81;100494.81;1806985;78;25791;-60
2021/08/29 11:46:23;;;;;;;6.12;3.98;;;;;;;26.60;49.59;100492.86;1802899;78;28485;-60
2021/08/29 11:48:58;;;;;;;4.30;3.83;;;;;;;26.56;50.88;100489.77;1785302;78;25858;-62
2021/08/29 11:51:36;;;;;;;11.18;5.65;;;;;;;26.49;49.76;100495.97;1838834;77;25785;-61